Time;durP1;ratioP1;P1;durP2;ratioP2;P2;SDS_P1;SDS_P2;PMS_P1;PMS_P2;Temp;Humidity;BMP_temperature;BMP_pressure;BME280_temperature;BME280_humidity;BME280_pressure;Samples;Min_cycle;Max_cycle;Signal;HPM_P1;HPM_P2
2022/12/11 00:00:15;;;;;;;85.05;24.00;;;;;;;-1.69;55.36;101137.09;5030575;28;20036;-66
2022/12/11 00:02:40;;;;;;;77.28;23.38;;;;;;;-1.76;55.56;101139.56;5029913;28;20045;-66
2022/12/11 00:05:06;;;;;;;73.47;21.98;;;;;;;-1.63;54.80;101141.47;5015513;28;20501;-67
2022/12/11 00:07:32;;;;;;;86.65;21.75;;;;;;;-1.74;55.23;101137.88;5026634;28;20045;-67
2022/12/11 00:09:57;;;;;;;72.05;20.70;;;;;;;-1.73;54.97;101129.34;5026965;28;20070;-67
2022/12/11 00:12:23;;;;;;;75.93;21.75;;;;;;;-1.60;55.08;101132.13;5011850;28;20288;-66
2022/12/11 00:14:48;;;;;;;90.43;22.17;;;;;;;-2.29;56.55;101133.59;5027520;28;20029;-65
2022/12/11 00:17:14;;;;;;;69.32;19.73;;;;;;;-1.81;55.92;101134.38;5040225;28;20414;-65
2022/12/11 00:19:39;;;;;;;77.32;20.73;;;;;;;-1.61;55.35;101132.09;5040154;28;20084;-66
2022/12/11 00:22:05;;;;;;;62.55;19.17;;;;;;;-1.49;55.40;101136.53;5026719;28;20430;-63
2022/12/11 00:24:30;;;;;;;69.32;19.58;;;;;;;-1.54;55.11;101133.06;5026694;28;20571;-68
2022/12/11 00:26:56;;;;;;;71.35;22.35;;;;;;;-1.49;55.36;101134.81;5024094;28;20045;-67
2022/12/11 00:29:21;;;;;;;73.95;22.13;;;;;;;-1.45;55.00;101125.50;5026131;28;20065;-67
2022/12/11 00:31:46;;;;;;;87.78;20.38;;;;;;;-2.11;56.08;101130.50;5028751;28;20029;-66
2022/12/11 00:34:12;;;;;;;71.97;20.48;;;;;;;-1.65;55.41;101133.75;5028526;28;20045;-66
2022/12/11 00:36:38;;;;;;;84.18;21.65;;;;;;;-1.97;56.71;101125.59;5025765;28;20086;-66
2022/12/11 00:39:05;;;;;;;82.18;21.48;;;;;;;-2.27;56.92;101131.94;5042671;28;20902;-66
2022/12/11 00:41:30;;;;;;;98.00;21.17;;;;;;;-2.46;57.64;101135.00;5025307;28;20029;-66
2022/12/11 00:43:56;;;;;;;72.05;21.48;;;;;;;-1.91;56.57;101135.94;5026179;28;20059;-67
2022/12/11 00:46:21;;;;;;;80.63;20.65;;;;;;;-2.03;56.77;101140.84;5024855;28;20037;-67
2022/12/11 00:48:48;;;;;;;86.90;20.92;;;;;;;-2.07;56.46;101137.38;4992619;28;20516;-66
2022/12/11 00:51:15;;;;;;;79.63;19.60;;;;;;;-1.87;56.03;101140.25;5004858;28;20079;-66
2022/12/11 00:53:40;;;;;;;78.88;21.88;;;;;;;-2.13;56.48;101144.97;5020950;28;20034;-66
2022/12/11 00:56:15;;;;;;;79.32;20.20;;;;;;;-1.93;56.57;101145.28;5024894;28;20060;-66
2022/12/11 00:58:41;;;;;;;96.78;20.88;;;;;;;-1.80;55.82;101147.22;5025113;28;20292;-65
2022/12/11 01:01:09;;;;;;;68.13;20.55;;;;;;;-1.74;55.80;101137.88;5026864;28;20059;-75
2022/12/11 01:03:35;;;;;;;104.53;21.25;;;;;;;-2.19;56.68;101149.13;5034049;28;20087;-75
2022/12/11 01:06:00;;;;;;;66.50;18.95;;;;;;;-1.84;56.13;101148.00;5019276;28;20037;-75
2022/12/11 01:08:26;;;;;;;98.82;21.45;;;;;;;-2.55;57.60;101153.59;5025540;28;20052;-75
2022/12/11 01:11:00;;;;;;;68.32;19.67;;;;;;;-2.23;57.09;101153.31;5029342;28;20060;-74
2022/12/11 01:13:26;;;;;;;86.10;21.27;;;;;;;-2.25;56.84;101153.28;5033751;28;20033;-74
2022/12/11 01:15:51;;;;;;;75.30;20.17;;;;;;;-1.91;56.65;101148.75;5027219;28;20025;-75
2022/12/11 01:18:16;;;;;;;72.93;20.10;;;;;;;-1.73;56.15;101150.72;5010324;28;20128;-66
2022/12/11 01:20:42;;;;;;;77.03;18.67;;;;;;;-1.88;56.22;101151.34;5025795;28;20482;-66
2022/12/11 01:23:12;;;;;;;72.50;19.65;;;;;;;-1.80;56.12;101156.56;5033257;28;20659;-66
2022/12/11 01:25:39;;;;;;;71.28;19.13;;;;;;;-1.91;56.70;101151.31;5023936;28;20025;-66
2022/12/11 01:28:05;;;;;;;75.47;19.60;;;;;;;-1.96;56.32;101155.47;5024489;28;21624;-65
2022/12/11 01:30:31;;;;;;;79.70;21.35;;;;;;;-1.98;56.15;101149.47;5025801;28;20450;-66
2022/12/11 01:32:56;;;;;;;81.50;18.90;;;;;;;-2.08;56.09;101150.16;5022728;28;20053;-65
2022/12/11 01:35:22;;;;;;;67.90;20.85;;;;;;;-2.06;56.24;101151.06;5026426;28;20063;-65
2022/12/11 01:37:47;;;;;;;72.78;18.38;;;;;;;-1.80;55.93;101149.78;5018522;28;20083;-66
2022/12/11 01:40:16;;;;;;;63.80;18.60;;;;;;;-1.76;55.54;101144.69;5010518;28;20042;-73
2022/12/11 01:42:42;;;;;;;65.50;17.25;;;;;;;-1.85;55.87;101153.94;5021189;28;20073;-72
2022/12/11 01:45:31;;;;;;;69.00;18.88;;;;;;;-1.80;55.57;101147.22;5043643;28;20164;-73
2022/12/11 01:48:05;;;;;;;72.35;18.77;;;;;;;-1.81;55.49;101150.59;5042267;28;20106;-74
2022/12/11 01:50:34;;;;;;;74.00;18.08;;;;;;;-1.71;55.10;101145.59;5030622;28;20048;-73
2022/12/11 01:53:03;;;;;;;56.80;18.30;;;;;;;-1.90;55.46;101142.75;5030466;28;20044;-73
2022/12/11 01:55:28;;;;;;;52.95;15.73;;;;;;;-1.76;55.45;101140.41;5022058;28;20083;-72
2022/12/11 01:57:54;;;;;;;63.00;17.30;;;;;;;-2.10;55.98;101144.16;5018702;28;20128;-73
2022/12/11 02:00:20;;;;;;;62.17;18.98;;;;;;;-1.92;55.31;101147.00;5024881;28;20382;-73
2022/12/11 02:02:46;;;;;;;69.53;17.17;;;;;;;-1.89;55.09;101149.63;5008044;28;20422;-73
2022/12/11 02:05:12;;;;;;;60.03;17.40;;;;;;;-2.04;55.62;101145.13;5008923;28;20043;-73
2022/12/11 02:07:45;;;;;;;55.08;14.82;;;;;;;-2.53;56.75;101146.81;5005571;28;20449;-73
2022/12/11 02:10:11;;;;;;;49.10;14.27;;;;;;;-2.83;57.12;101149.63;5009635;28;20119;-74
2022/12/11 02:13:02;;;;;;;47.53;15.38;;;;;;;-2.48;56.08;101141.78;5008450;28;20046;-65
2022/12/11 02:16:12;;;;;;;44.63;13.93;;;;;;;-2.24;55.47;101147.34;5023916;28;20049;-65
2022/12/11 02:18:51;;;;;;;47.17;13.82;;;;;;;-2.19;55.30;101151.69;4992360;28;20115;-64
2022/12/11 02:21:28;;;;;;;49.88;14.95;;;;;;;-2.22;55.05;101145.66;5025625;28;20053;-65
2022/12/11 02:24:18;;;;;;;53.45;15.55;;;;;;;-2.21;55.35;101139.69;5007585;28;20160;-65
2022/12/11 02:27:04;;;;;;;43.63;11.60;;;;;;;-2.25;55.20;101131.94;5008792;28;20098;-65
2022/12/11 02:30:10;;;;;;;36.63;12.85;;;;;;;-2.32;55.09;101133.53;5017460;28;20056;-67
2022/12/11 02:32:44;;;;;;;54.25;14.38;;;;;;;-2.67;56.32;101136.34;5011735;28;20056;-66
2022/12/11 02:35:18;;;;;;;54.35;15.40;;;;;;;-2.77;56.69;101136.97;5007492;28;20049;-65
2022/12/11 02:37:48;;;;;;;48.60;13.95;;;;;;;-2.35;55.77;101133.47;5007399;28;20557;-65
2022/12/11 02:40:18;;;;;;;65.78;15.45;;;;;;;-2.08;55.48;101133.09;5008796;28;20061;-66
2022/12/11 02:42:46;;;;;;;50.10;15.68;;;;;;;-2.16;55.05;101128.66;5015526;28;20045;-66
2022/12/11 02:45:13;;;;;;;49.42;14.95;;;;;;;-2.28;55.53;101130.19;5028791;28;20053;-66
2022/12/11 02:47:43;;;;;;;57.10;15.02;;;;;;;-2.99;56.89;101127.16;5025671;28;20088;-64
2022/12/11 02:50:13;;;;;;;45.53;13.13;;;;;;;-2.28;55.66;101130.19;5026348;28;20102;-65
2022/12/11 02:52:41;;;;;;;45.08;12.38;;;;;;;-2.45;55.43;101129.03;5040408;28;20064;-64
2022/12/11 02:55:09;;;;;;;50.80;12.15;;;;;;;-2.34;55.41;101122.41;5027088;28;20091;-63
2022/12/11 02:57:42;;;;;;;50.90;13.27;;;;;;;-2.87;57.04;101117.16;5027659;28;20525;-70
2022/12/11 03:00:09;;;;;;;39.33;12.70;;;;;;;-3.07;57.20;101117.66;5028705;28;20488;-66
2022/12/11 03:02:35;;;;;;;46.55;13.38;;;;;;;-2.95;56.92;101113.59;5026295;28;20577;-66
2022/12/11 03:05:01;;;;;;;46.80;13.30;;;;;;;-2.76;55.75;101114.81;5028127;28;20041;-67
2022/12/11 03:07:31;;;;;;;40.58;12.50;;;;;;;-2.93;57.12;101109.38;5028133;28;20488;-66
2022/12/11 03:09:57;;;;;;;40.80;12.30;;;;;;;-2.59;56.00;101107.44;5026008;28;20033;-66
2022/12/11 03:12:31;;;;;;;43.22;11.85;;;;;;;-2.59;56.00;101113.44;5035488;28;20054;-66
2022/12/11 03:15:00;;;;;;;34.85;11.35;;;;;;;-3.70;57.99;101116.31;5009249;28;20042;-67
2022/12/11 03:17:34;;;;;;;35.28;10.88;;;;;;;-3.14;56.63;101118.34;5008578;28;20064;-65
2022/12/11 03:20:11;;;;;;;32.10;11.38;;;;;;;-3.12;56.69;101123.47;4988747;28;20044;-66
2022/12/11 03:22:43;;;;;;;36.28;12.05;;;;;;;-2.64;55.64;101121.03;5003657;28;20051;-66
2022/12/11 03:25:14;;;;;;;;;;;;;;;-3.48;57.57;101117.63;5026539;28;20055;-66
2022/12/11 03:28:04;;;;;;;33.60;9.83;;;;;;;-2.85;56.24;101123.16;5016757;28;19951;-64
2022/12/11 03:30:35;;;;;;;34.15;10.45;;;;;;;-2.98;56.33;101128.88;5005833;28;20276;-65
2022/12/11 03:33:10;;;;;;;48.90;11.88;;;;;;;-3.63;58.71;101119.88;5004821;28;20061;-67
2022/12/11 03:35:41;;;;;;;33.60;11.43;;;;;;;-3.42;57.96;101116.91;5006212;28;20477;-65
2022/12/11 03:38:16;;;;;;;44.40;11.77;;;;;;;-3.32;57.92;101113.72;5020249;28;20037;-66
2022/12/11 03:40:45;;;;;;;36.30;10.32;;;;;;;-2.75;56.33;101119.97;5018938;28;20035;-66
2022/12/11 03:43:11;;;;;;;31.02;10.15;;;;;;;-2.93;56.59;101114.50;5021673;28;20540;-68
2022/12/11 03:45:39;;;;;;;42.53;12.32;;;;;;;-3.08;56.78;101123.56;5015700;28;20029;-66
2022/12/11 03:48:06;;;;;;;37.03;11.70;;;;;;;-2.67;56.13;101114.97;5012317;28;20111;-66
2022/12/11 03:50:33;;;;;;;38.05;10.27;;;;;;;-3.02;56.12;101119.44;5007068;28;20361;-66
2022/12/11 03:53:02;;;;;;;37.70;11.35;;;;;;;-3.04;56.44;101114.28;5006648;28;20287;-65
2022/12/11 03:55:29;;;;;;;39.88;10.30;;;;;;;-2.82;56.17;101107.91;5009260;28;20121;-65
2022/12/11 03:57:55;;;;;;;36.13;10.10;;;;;;;-2.52;55.50;101104.16;5006502;28;20525;-65
2022/12/11 04:00:21;;;;;;;34.22;9.88;;;;;;;-2.48;54.95;101108.50;5007916;28;20324;-63
2022/12/11 04:03:11;;;;;;;37.92;11.18;;;;;;;-2.84;55.58;101112.97;5005521;28;20038;-65
2022/12/11 04:05:32;;;;;;;30.73;9.27;;;;;;;-2.53;55.25;101108.44;5005748;28;20299;-65
2022/12/11 04:07:57;;;;;;;22.83;10.32;;;;;;;-2.51;55.45;101118.69;5005217;28;20057;-65
2022/12/11 04:10:23;;;;;;;37.38;11.10;;;;;;;-2.33;55.33;101118.16;5018873;28;20036;-65
2022/12/11 04:12:48;;;;;;;43.55;11.80;;;;;;;-2.39;55.16;101111.22;5006384;28;20045;-64
2022/12/11 04:15:14;;;;;;;35.38;10.55;;;;;;;-2.68;55.78;101115.81;5007555;28;20530;-66
2022/12/11 04:26:10;;;;;;;35.30;11.57;;;;;;;-2.82;56.47;101120.69;5033335;28;20078;-68
2022/12/11 04:28:36;;;;;;;28.88;9.40;;;;;;;-2.70;55.96;101115.78;5038117;28;20037;-68
2022/12/11 04:31:02;;;;;;;25.08;9.07;;;;;;;-3.17;57.10;101120.84;5028775;28;20073;-68
2022/12/11 04:33:28;;;;;;;31.05;9.63;;;;;;;-2.79;56.25;101118.19;5019830;28;20080;-69
2022/12/11 04:35:56;;;;;;;35.65;10.90;;;;;;;-3.15;56.53;101116.63;5006481;28;20026;-70
2022/12/11 04:38:22;;;;;;;34.78;8.02;;;;;;;-3.12;57.31;101120.91;5022090;28;20121;-69
2022/12/11 04:40:47;;;;;;;35.15;8.98;;;;;;;-3.18;57.04;101126.78;5016373;28;20127;-70
2022/12/11 04:43:13;;;;;;;20.83;6.95;;;;;;;-3.24;57.25;101126.66;5013892;28;20084;-68
2022/12/11 04:45:38;;;;;;;24.60;8.23;;;;;;;-3.28;57.64;101133.38;4990161;28;20135;-64
2022/12/11 04:48:04;;;;;;;30.73;8.38;;;;;;;-3.50;58.38;101129.50;5005984;28;20037;-65
2022/12/11 04:50:29;;;;;;;26.30;8.63;;;;;;;-3.51;58.22;101126.94;5006958;28;20049;-64
2022/12/11 04:52:55;;;;;;;22.10;8.63;;;;;;;-3.28;57.37;101124.84;5003723;28;20749;-65
2022/12/11 04:55:21;;;;;;;31.45;8.45;;;;;;;-3.18;57.25;101121.69;5020546;28;20037;-63
2022/12/11 04:57:47;;;;;;;31.10;9.60;;;;;;;-3.09;57.17;101121.88;5003237;28;20068;-64
2022/12/11 05:00:13;;;;;;;23.60;8.40;;;;;;;-2.81;56.91;101122.41;5007172;28;20030;-64
2022/12/11 05:02:40;;;;;;;29.38;8.68;;;;;;;-2.97;56.78;101130.59;5002582;28;20120;-64
2022/12/11 05:05:08;;;;;;;33.00;9.23;;;;;;;-3.53;57.54;101119.22;5006025;28;20087;-65
2022/12/11 05:07:34;;;;;;;23.42;8.25;;;;;;;-3.03;56.57;101116.00;5006488;28;20124;-65
2022/12/11 05:10:00;;;;;;;25.17;7.15;;;;;;;-2.82;56.28;101115.56;5006409;28;20041;-64
2022/12/11 05:12:25;;;;;;;31.13;8.82;;;;;;;-2.84;56.57;101112.13;5007321;28;20049;-64
2022/12/11 05:14:54;;;;;;;30.60;7.85;;;;;;;-2.78;55.80;101112.25;5009069;28;20392;-65
2022/12/11 05:17:20;;;;;;;22.83;8.13;;;;;;;-2.86;55.89;101106.09;5015974;28;20057;-64
2022/12/11 05:19:48;;;;;;;25.50;7.63;;;;;;;-2.77;55.74;101108.84;5032604;28;20395;-65
2022/12/11 05:22:14;;;;;;;32.33;8.55;;;;;;;-2.92;55.96;101108.53;5022912;28;20037;-65
2022/12/11 05:24:40;;;;;;;28.30;8.10;;;;;;;-3.05;56.38;101125.31;5007243;28;20056;-65
2022/12/11 05:27:05;;;;;;;23.83;8.15;;;;;;;-2.91;55.54;101125.63;5010423;28;20517;-64
2022/12/11 05:29:31;;;;;;;23.65;8.25;;;;;;;-2.97;55.85;101115.25;5009366;28;20034;-65
2022/12/11 05:31:56;;;;;;;20.92;7.88;;;;;;;-2.82;55.43;101127.50;5009454;28;20060;-65
2022/12/11 05:34:22;;;;;;;21.92;7.25;;;;;;;-2.81;55.35;101121.53;5008195;28;20562;-65
2022/12/11 05:36:47;;;;;;;24.63;7.00;;;;;;;-2.81;55.33;101122.41;5008723;28;20430;-64
2022/12/11 05:39:12;;;;;;;27.30;8.90;;;;;;;-2.79;55.16;101136.09;5011090;28;20482;-64
2022/12/11 05:41:39;;;;;;;21.67;6.78;;;;;;;-2.82;55.38;101133.47;5007434;28;20033;-64
2022/12/11 05:44:04;;;;;;;23.55;6.75;;;;;;;-2.81;55.34;101124.09;5014844;28;20095;-65
2022/12/11 05:46:30;;;;;;;25.02;6.90;;;;;;;-3.15;55.85;101131.97;5009971;28;20021;-66
2022/12/11 05:48:58;;;;;;;24.08;7.75;;;;;;;-2.89;55.35;101123.97;5011140;28;20045;-64
2022/12/11 05:51:25;;;;;;;24.92;6.97;;;;;;;-3.11;56.15;101131.19;5014642;28;20029;-65
2022/12/11 05:53:52;;;;;;;25.75;6.68;;;;;;;-3.00;55.18;101126.31;5007659;28;20049;-64
2022/12/11 05:56:19;;;;;;;19.20;7.35;;;;;;;-2.92;55.42;101131.56;5009063;28;20049;-63
2022/12/11 05:58:46;;;;;;;21.67;6.80;;;;;;;-3.18;56.07;101124.22;5007697;28;20038;-64
2022/12/11 06:01:18;;;;;;;26.80;7.40;;;;;;;-2.89;55.29;101136.75;5010073;28;20129;-67
2022/12/11 06:03:44;;;;;;;;;;;;;;;-2.66;55.20;101138.03;5010121;28;20052;-67
2022/12/11 06:06:09;;;;;;;18.88;6.45;;;;;;;-2.78;54.74;101127.59;5009899;28;19917;-65
2022/12/11 06:08:35;;;;;;;20.10;6.47;;;;;;;-2.80;55.31;101129.25;5010195;28;20047;-67
2022/12/11 06:11:01;;;;;;;21.52;6.97;;;;;;;-2.80;54.42;101134.38;5008826;28;20045;-67
2022/12/11 06:13:26;;;;;;;20.20;7.25;;;;;;;-2.74;54.77;101124.22;5009624;28;20574;-67
2022/12/11 06:15:52;;;;;;;23.08;7.10;;;;;;;-2.82;55.10;101127.50;5011400;28;20047;-67
2022/12/11 06:18:18;;;;;;;22.27;7.97;;;;;;;-2.82;54.64;101119.84;5007999;28;20041;-67
2022/12/11 06:20:44;;;;;;;25.92;8.70;;;;;;;-2.85;54.93;101126.59;5007998;28;20042;-66
2022/12/11 06:23:09;;;;;;;18.55;6.55;;;;;;;-2.93;55.03;101123.03;5008196;28;20041;-67
2022/12/11 06:25:37;;;;;;;30.98;8.60;;;;;;;-2.99;55.54;101127.16;5007637;28;20064;-66
2022/12/11 06:28:03;;;;;;;32.63;8.55;;;;;;;-2.88;54.97;101121.41;5009914;28;20107;-68
2022/12/11 06:30:28;;;;;;;32.33;8.20;;;;;;;-2.77;54.94;101118.22;5007368;28;20502;-68
2022/12/11 06:32:53;;;;;;;26.98;7.70;;;;;;;-2.57;55.04;101121.16;5004465;28;20048;-66
2022/12/11 06:35:19;;;;;;;17.63;6.90;;;;;;;-2.63;54.43;101122.72;5009004;28;20118;-68
2022/12/11 06:37:44;;;;;;;24.13;7.88;;;;;;;-2.85;55.12;101120.59;4991384;28;20116;-67
2022/12/11 06:40:11;;;;;;;18.80;7.10;;;;;;;-2.81;54.64;101116.44;5008682;28;20033;-66
2022/12/11 06:42:37;;;;;;;17.45;8.20;;;;;;;-2.75;54.84;101116.56;5005110;28;20133;-67
2022/12/11 06:45:03;;;;;;;21.80;7.82;;;;;;;-2.73;54.87;101115.75;5009525;28;20533;-66
2022/12/11 06:47:29;;;;;;;20.60;7.97;;;;;;;-2.71;54.75;101114.06;5003660;28;20053;-67
2022/12/11 06:49:55;;;;;;;24.50;7.82;;;;;;;-2.78;54.96;101112.25;5007328;28;20033;-63
2022/12/11 06:52:22;;;;;;;23.38;7.15;;;;;;;-2.79;54.73;101118.19;5004758;28;20596;-65
2022/12/11 06:54:48;;;;;;;23.92;6.60;;;;;;;-2.76;54.77;101113.13;5008110;28;20538;-66
2022/12/11 06:57:14;;;;;;;20.70;7.30;;;;;;;-2.67;54.66;101110.75;5009328;28;20046;-66
2022/12/11 06:59:40;;;;;;;15.20;6.10;;;;;;;-2.77;54.91;101113.94;5007751;28;20030;-65
2022/12/11 07:02:05;;;;;;;20.00;8.18;;;;;;;-2.77;54.82;101113.94;5027828;28;20053;-67
2022/12/11 07:04:31;;;;;;;25.80;7.40;;;;;;;-2.90;55.32;101115.41;5027235;28;20107;-66
2022/12/11 07:06:56;;;;;;;22.42;6.97;;;;;;;-2.79;55.06;101114.75;5025066;28;20076;-68
2022/12/11 07:09:23;;;;;;;20.67;7.30;;;;;;;-2.73;54.73;101115.75;5027625;28;20059;-65
2022/12/11 07:11:49;;;;;;;17.95;7.80;;;;;;;-2.75;54.84;101114.84;5027359;28;20047;-65
2022/12/11 07:14:15;;;;;;;19.92;7.75;;;;;;;-2.77;55.04;101113.09;5027024;28;20041;-67
2022/12/11 07:16:41;;;;;;;18.98;6.85;;;;;;;-2.77;54.70;101113.09;5040137;28;20273;-67
2022/12/11 07:19:06;;;;;;;16.40;6.88;;;;;;;-2.81;54.81;101111.31;5019274;28;20108;-70
2022/12/11 07:21:32;;;;;;;19.70;7.38;;;;;;;-3.00;55.15;101110.97;5034678;28;20048;-71
2022/12/11 07:23:58;;;;;;;28.73;7.90;;;;;;;-3.06;55.47;101111.69;5011590;28;20457;-68
2022/12/11 07:26:23;;;;;;;22.55;7.70;;;;;;;-2.94;55.27;101111.06;5030299;28;20525;-70
2022/12/11 07:28:49;;;;;;;22.10;8.50;;;;;;;-2.79;54.83;101114.75;5008410;28;20050;-68
2022/12/11 07:31:18;;;;;;;23.67;8.02;;;;;;;-2.90;55.09;101112.00;5007580;28;20037;-69
2022/12/11 07:33:43;;;;;;;20.73;8.18;;;;;;;-3.01;55.25;101116.88;4996714;28;20107;-68
2022/12/11 07:36:11;;;;;;;22.80;7.10;;;;;;;-2.96;55.22;101114.41;5011595;28;20041;-70
2022/12/11 07:38:37;;;;;;;26.85;8.15;;;;;;;-2.91;55.77;101116.25;5005855;28;20120;-71
2022/12/11 07:41:04;;;;;;;18.00;6.40;;;;;;;-2.84;55.35;101109.56;5009110;28;20121;-71
2022/12/11 07:43:31;;;;;;;17.95;6.57;;;;;;;-2.73;55.28;101114.88;5021007;28;20128;-69
2022/12/11 07:46:01;;;;;;;26.33;6.43;;;;;;;-2.71;55.18;101114.06;5027981;28;20047;-65
2022/12/11 07:48:26;;;;;;;33.40;8.85;;;;;;;-2.72;55.12;101112.34;5010493;28;20050;-65
2022/12/11 07:50:52;;;;;;;18.65;6.78;;;;;;;-2.94;55.49;101125.53;5014540;28;20111;-68
2022/12/11 07:53:17;;;;;;;23.52;7.07;;;;;;;-2.93;55.70;101122.16;5006357;28;20542;-67
2022/12/11 07:55:42;;;;;;;18.38;7.22;;;;;;;-2.94;55.62;101121.28;5005913;28;20426;-65
2022/12/11 07:58:08;;;;;;;20.52;7.55;;;;;;;-2.79;55.26;101120.72;5008673;28;20050;-68
2022/12/11 08:00:33;;;;;;;24.48;7.68;;;;;;;-2.68;54.96;101120.94;5006409;28;21424;-67
2022/12/11 08:02:59;;;;;;;19.98;7.25;;;;;;;-2.63;54.94;101116.75;5006753;28;20049;-67
2022/12/11 08:05:24;;;;;;;14.73;5.55;;;;;;;-2.54;55.21;101110.94;5006595;28;20125;-67
2022/12/11 08:07:50;;;;;;;15.98;5.75;;;;;;;-2.55;54.82;101114.34;5008816;28;20048;-68
2022/12/11 08:10:15;;;;;;;12.32;4.88;;;;;;;-2.53;54.82;101117.81;5006816;28;20124;-65
2022/12/11 08:12:41;;;;;;;28.65;6.60;;;;;;;-2.83;55.34;101121.50;5010916;28;20533;-65
2022/12/11 08:15:07;;;;;;;18.17;6.25;;;;;;;-2.54;54.80;101132.28;5025377;28;20184;-67
2022/12/11 08:17:35;;;;;;;16.25;5.28;;;;;;;-3.07;55.91;101127.88;5016228;28;20207;-67
2022/12/11 08:20:03;;;;;;;17.10;5.63;;;;;;;-2.80;55.43;101128.38;5024322;28;20181;-67
2022/12/11 08:22:29;;;;;;;22.60;6.90;;;;;;;-2.70;54.92;101138.81;5001696;28;20248;-67
2022/12/11 08:24:55;;;;;;;17.10;7.45;;;;;;;-2.58;54.73;101134.75;5005420;28;20109;-66
2022/12/11 08:27:20;;;;;;;21.73;7.00;;;;;;;-2.62;55.19;101138.97;5003540;28;20049;-67
2022/12/11 08:29:46;;;;;;;17.23;5.22;;;;;;;-2.68;55.10;101136.28;5003568;28;20553;-67
2022/12/11 08:32:12;;;;;;;14.50;5.35;;;;;;;-2.52;54.59;101134.88;5002149;28;20057;-65
2022/12/11 08:34:39;;;;;;;12.98;5.03;;;;;;;-2.72;54.99;101134.50;5001632;28;20026;-65
2022/12/11 08:37:04;;;;;;;17.02;5.55;;;;;;;-2.71;55.12;101129.44;5001716;28;20080;-67
2022/12/11 08:39:30;;;;;;;17.30;4.57;;;;;;;-2.60;54.36;101126.19;5002809;28;20136;-65
2022/12/11 08:41:56;;;;;;;15.63;5.30;;;;;;;-2.57;54.51;101126.25;5001223;28;20634;-67
2022/12/11 08:44:23;;;;;;;16.23;6.22;;;;;;;-2.47;54.21;101130.69;5003238;28;20040;-66
2022/12/11 08:46:49;;;;;;;17.50;6.10;;;;;;;-2.56;54.56;101133.09;5002965;28;20034;-66
2022/12/11 08:49:14;;;;;;;15.77;5.22;;;;;;;-2.43;54.07;101132.47;5021547;28;22828;-66
2022/12/11 08:51:40;;;;;;;12.82;5.38;;;;;;;-2.35;54.18;101130.06;5021144;28;20554;-66
2022/12/11 08:54:06;;;;;;;18.35;5.50;;;;;;;-2.44;54.28;101133.31;5004785;28;20045;-67
2022/12/11 08:56:31;;;;;;;14.95;5.00;;;;;;;-2.55;54.38;101139.94;5001728;28;20034;-68
2022/12/11 08:59:00;;;;;;;19.33;5.88;;;;;;;-2.67;54.79;101130.31;5001068;28;20426;-66
2022/12/11 09:01:26;;;;;;;12.45;4.82;;;;;;;-2.64;54.73;101136.38;5002507;28;20406;-67
2022/12/11 09:03:53;;;;;;;17.20;5.85;;;;;;;-2.37;54.19;101130.03;5018051;28;20787;-66
2022/12/11 09:06:22;;;;;;;15.35;4.60;;;;;;;-2.19;54.01;101136.31;5021550;28;20029;-66
2022/12/11 09:08:49;;;;;;;14.23;5.57;;;;;;;-2.04;54.01;101137.44;5021130;28;20045;-67
2022/12/11 09:11:18;;;;;;;14.50;5.88;;;;;;;-2.01;54.20;101134.91;5020710;28;20943;-65
2022/12/11 09:13:44;;;;;;;16.35;4.85;;;;;;;-1.96;53.32;101132.41;5019326;28;20041;-67
2022/12/11 09:16:13;;;;;;;13.73;5.80;;;;;;;-2.03;53.07;101130.59;5021720;28;20032;-66
2022/12/11 09:18:39;;;;;;;15.73;5.03;;;;;;;-2.05;53.42;101134.84;5012405;28;20180;-65
2022/12/11 09:21:08;;;;;;;18.75;6.07;;;;;;;-2.06;53.23;101133.13;5021893;28;20029;-68
2022/12/11 09:23:33;;;;;;;12.90;5.40;;;;;;;-2.14;53.53;101132.97;5014394;28;20104;-66
2022/12/11 09:26:02;;;;;;;20.05;6.75;;;;;;;-2.36;53.77;101129.19;4992314;28;20495;-66
2022/12/11 09:28:27;;;;;;;17.98;5.10;;;;;;;-2.28;53.24;101126.78;5004581;28;20065;-67
2022/12/11 09:30:52;;;;;;;16.63;5.75;;;;;;;-2.22;53.58;101124.31;5007477;28;20061;-67
2022/12/11 09:33:18;;;;;;;18.10;6.00;;;;;;;-2.19;53.64;101132.06;5006080;28;20065;-68
2022/12/11 09:35:43;;;;;;;17.65;5.38;;;;;;;-2.25;53.93;101119.13;5014337;28;20120;-66
2022/12/11 09:38:09;;;;;;;14.25;5.22;;;;;;;-2.07;53.93;101127.16;5012917;28;20680;-67
2022/12/11 09:40:42;;;;;;;20.27;5.90;;;;;;;-2.06;53.43;101120.31;5008113;28;20127;-67
2022/12/11 09:43:40;;;;;;;19.60;5.95;;;;;;;-2.18;53.49;101122.66;5009842;28;20395;-67
2022/12/11 09:46:12;;;;;;;15.25;4.95;;;;;;;-2.16;53.36;101118.44;5002833;28;20049;-65
2022/12/11 09:48:43;;;;;;;12.43;5.47;;;;;;;-2.12;53.55;101118.50;5006498;28;20041;-67
2022/12/11 09:51:26;;;;;;;14.67;5.70;;;;;;;-2.09;53.85;101120.25;5012947;28;20129;-65
2022/12/11 09:53:55;;;;;;;13.38;4.38;;;;;;;-2.13;53.95;101121.06;5006240;28;20292;-66
2022/12/11 09:56:26;;;;;;;18.67;5.60;;;;;;;-2.02;53.72;101117.81;5005682;28;20042;-67
2022/12/11 09:59:10;;;;;;;12.18;5.13;;;;;;;-2.11;53.65;101114.22;5028710;28;20635;-68
2022/12/11 10:01:40;;;;;;;17.70;4.40;;;;;;;-2.04;53.58;101113.53;5029274;28;20126;-64
2022/12/11 10:04:16;;;;;;;13.25;5.05;;;;;;;-2.09;54.00;101110.00;5039343;28;20071;-66
2022/12/11 10:06:53;;;;;;;19.88;5.82;;;;;;;-2.02;53.42;101114.41;5044042;28;20039;-67
2022/12/11 10:09:24;;;;;;;18.67;7.03;;;;;;;-1.94;53.46;101105.13;5027845;28;20067;-66
2022/12/11 10:12:15;;;;;;;17.43;4.27;;;;;;;-1.96;53.74;101105.94;5027751;28;20045;-67
2022/12/11 10:14:57;;;;;;;17.50;4.60;;;;;;;-2.22;54.10;101104.69;5025433;28;20351;-66
2022/12/11 10:17:29;;;;;;;20.10;5.60;;;;;;;-2.16;53.42;101105.63;5028636;28;20056;-67
2022/12/11 10:20:01;;;;;;;14.38;4.70;;;;;;;-2.14;53.32;101103.94;5024059;28;20029;-67
2022/12/11 10:22:29;;;;;;;;;;;;;;;-1.98;53.30;101094.81;5042519;28;20051;-67
2022/12/11 10:24:57;;;;;;;11.27;4.40;;;;;;;-2.23;53.34;101100.41;5024463;28;19986;-67
2022/12/11 10:27:31;;;;;;;13.25;5.32;;;;;;;-2.16;54.04;101097.94;5040936;28;20124;-67
2022/12/11 10:30:14;;;;;;;13.10;4.78;;;;;;;-2.00;53.14;101087.09;5026791;28;20072;-67
2022/12/11 10:32:52;;;;;;;14.90;4.93;;;;;;;-2.22;53.32;101098.72;5024086;28;20061;-67
2022/12/11 10:35:26;;;;;;;16.65;4.85;;;;;;;-2.10;53.08;101104.03;5026668;28;20106;-65
2022/12/11 10:37:55;;;;;;;14.00;5.82;;;;;;;-2.05;53.75;101096.41;5025548;28;20071;-68
2022/12/11 10:40:24;;;;;;;12.45;4.82;;;;;;;-2.04;53.54;101093.03;5027699;28;20372;-66
2022/12/11 10:42:53;;;;;;;16.17;5.05;;;;;;;-1.82;53.15;101091.66;5023615;28;20125;-65
2022/12/11 10:45:19;;;;;;;21.13;6.30;;;;;;;-1.97;53.12;101087.16;5026969;28;20158;-67
2022/12/11 10:47:45;;;;;;;14.40;4.93;;;;;;;-2.39;53.79;101083.06;5026681;28;20398;-65
2022/12/11 10:50:23;;;;;;;14.30;5.57;;;;;;;-2.47;53.88;101079.50;5023654;28;20048;-66
2022/12/11 10:52:50;;;;;;;17.15;5.72;;;;;;;-2.18;53.52;101084.25;5023548;28;20040;-67
2022/12/11 10:55:21;;;;;;;14.25;6.03;;;;;;;-2.11;53.11;101086.06;5024378;28;20136;-65
2022/12/11 10:57:56;;;;;;;15.25;5.55;;;;;;;-1.99;53.08;101086.28;5025924;28;20569;-65
2022/12/11 11:00:36;;;;;;;16.40;4.75;;;;;;;-2.05;53.12;101086.16;5033838;28;20040;-66
2022/12/11 11:03:26;;;;;;;13.77;5.22;;;;;;;-1.97;53.19;101088.88;5014791;28;20254;-67
2022/12/11 11:06:13;;;;;;;16.00;5.10;;;;;;;-2.41;54.02;101084.72;5000107;28;20042;-66
2022/12/11 11:08:51;;;;;;;14.48;4.82;;;;;;;-2.25;53.65;101084.13;5002488;28;20570;-65
2022/12/11 11:11:24;;;;;;;14.73;5.75;;;;;;;-2.14;52.86;101091.16;5014127;28;20041;-66
2022/12/11 11:13:50;;;;;;;17.05;4.95;;;;;;;-1.93;53.01;101082.91;5003589;28;20132;-67
2022/12/11 11:16:19;;;;;;;15.23;6.57;;;;;;;-1.79;52.72;101084.00;5006249;28;20581;-67
2022/12/11 11:18:54;;;;;;;18.38;5.63;;;;;;;-1.76;52.77;101083.19;5019594;28;20120;-66
2022/12/11 11:21:25;;;;;;;16.73;5.75;;;;;;;-1.89;52.74;101077.91;5025210;28;20490;-66
2022/12/11 11:23:53;;;;;;;16.10;5.63;;;;;;;-2.12;53.20;101080.09;5037883;28;20124;-67
2022/12/11 11:26:20;;;;;;;14.82;6.70;;;;;;;-2.10;52.68;101072.44;5027426;28;20033;-67
2022/12/11 11:28:54;;;;;;;15.82;5.20;;;;;;;-2.14;53.07;101068.94;5007332;28;20072;-65